createdAt,value
2018-12-25T00:00:22.023Z,54.10
2018-12-25T00:00:53.433Z,54.10
2018-12-25T00:01:24.858Z,54.10
2018-12-25T00:01:56.299Z,54.10
2018-12-25T00:02:28.072Z,54.10
2018-12-25T00:02:59.549Z,54.10
2018-12-25T00:03:31.494Z,54.10
2018-12-25T00:04:02.966Z,54.20
2018-12-25T00:04:34.362Z,54.80
2018-12-25T00:05:05.780Z,54.10
2018-12-25T00:05:37.579Z,54.20
2018-12-25T00:06:08.941Z,54.10
2018-12-25T00:06:40.345Z,54.10
2018-12-25T00:07:11.824Z,54.10
2018-12-25T00:07:43.261Z,54.10
2018-12-25T00:08:15.124Z,54.10
2018-12-25T00:08:46.913Z,54.00
2018-12-25T00:09:18.334Z,54.00
2018-12-25T00:09:49.691Z,54.00
2018-12-25T00:10:21.079Z,54.00
2018-12-25T00:10:52.486Z,54.00
2018-12-25T00:11:24.291Z,54.00
2018-12-25T00:11:55.694Z,53.90
2018-12-25T00:12:27.109Z,53.90
2018-12-25T00:12:58.483Z,53.90
2018-12-25T00:14:20.291Z,53.90
2018-12-25T00:14:52.667Z,53.80
2018-12-25T00:15:24.117Z,53.90
2018-12-25T00:15:55.470Z,53.90
2018-12-25T00:17:17.834Z,53.80
2018-12-25T00:17:49.251Z,54.40
2018-12-25T00:18:21.047Z,53.80
2018-12-25T00:18:52.965Z,53.80
2018-12-25T00:19:24.379Z,53.80
2018-12-25T00:19:57.874Z,53.80
2018-12-25T00:20:28.816Z,53.80
2018-12-25T00:21:00.230Z,53.80
2018-12-25T00:21:32.038Z,53.80
2018-12-25T00:22:03.447Z,53.80
2018-12-25T00:22:34.817Z,53.80
2018-12-25T00:23:06.222Z,53.80
2018-12-25T00:23:38.058Z,53.80
2018-12-25T00:24:09.747Z,53.80
2018-12-25T00:24:41.142Z,53.80
2018-12-25T00:25:12.550Z,53.80
2018-12-25T00:25:43.966Z,53.80
2018-12-25T00:26:15.404Z,53.80
2018-12-25T00:26:46.779Z,53.80
2018-12-25T00:27:18.220Z,53.90
2018-12-25T00:27:49.599Z,53.90
2018-12-25T00:28:23.830Z,53.90
2018-12-25T00:28:55.263Z,53.90
2018-12-25T00:29:27.134Z,53.90
2018-12-25T00:29:59.016Z,53.90
2018-12-25T00:30:30.393Z,53.90
2018-12-25T00:31:01.768Z,53.90
2018-12-25T00:31:33.210Z,53.90
2018-12-25T00:32:04.666Z,53.90
2018-12-25T00:32:36.007Z,54.00
2018-12-25T00:33:07.417Z,53.90
2018-12-25T00:33:38.847Z,53.90
2018-12-25T00:34:10.315Z,54.00
2018-12-25T00:34:41.697Z,53.90
2018-12-25T00:35:13.077Z,53.90
2018-12-25T00:35:44.890Z,54.00
2018-12-25T00:36:16.266Z,53.90
2018-12-25T00:36:47.679Z,53.90
2018-12-25T00:37:19.062Z,53.90
2018-12-25T00:37:50.910Z,53.90
2018-12-25T00:39:12.676Z,53.90
2018-12-25T00:39:44.598Z,53.90
2018-12-25T00:40:16.068Z,53.90
2018-12-25T00:40:47.459Z,53.90
2018-12-25T00:41:18.829Z,53.90
2018-12-25T00:41:50.332Z,53.90
2018-12-25T00:42:22.212Z,53.90
2018-12-25T00:42:53.606Z,53.90
2018-12-25T00:43:25.399Z,53.90
2018-12-25T00:43:57.206Z,54.00
2018-12-25T00:44:28.710Z,54.00
2018-12-25T00:45:00.084Z,54.00
2018-12-25T00:45:31.614Z,54.00
2018-12-25T00:46:03.026Z,54.00
2018-12-25T00:46:36.531Z,54.00
2018-12-25T00:47:07.929Z,54.00
2018-12-25T00:47:39.438Z,54.00
2018-12-25T00:48:10.839Z,54.00
2018-12-25T00:48:42.693Z,54.10
2018-12-25T00:49:15.159Z,54.00
2018-12-25T00:49:46.590Z,54.10
2018-12-25T00:50:18.576Z,54.00
2018-12-25T00:50:50.389Z,54.00
2018-12-25T00:51:21.808Z,54.00
2018-12-25T00:51:53.264Z,54.00
2018-12-25T00:52:24.702Z,54.00
2018-12-25T00:52:56.235Z,54.00
2018-12-25T00:53:27.666Z,54.10
2018-12-25T00:53:59.040Z,54.10
2018-12-25T00:54:30.474Z,54.00
2018-12-25T00:55:02.053Z,54.00
2018-12-25T00:55:33.473Z,54.00
2018-12-25T00:56:04.956Z,54.00
2018-12-25T00:56:36.687Z,54.10
2018-12-25T00:57:08.533Z,54.10
2018-12-25T00:57:40.267Z,54.10
2018-12-25T00:58:11.729Z,54.10
2018-12-25T00:58:43.180Z,54.00
2018-12-25T00:59:14.651Z,54.00
2018-12-25T00:59:47.362Z,54.00
2018-12-25T01:00:18.718Z,54.00
2018-12-25T01:00:50.607Z,54.00
2018-12-25T01:01:22.070Z,54.00
2018-12-25T01:01:53.492Z,54.60
2018-12-25T01:02:24.852Z,53.90
2018-12-25T01:02:56.433Z,53.90
2018-12-25T01:03:27.800Z,53.90
2018-12-25T01:03:59.290Z,53.90
2018-12-25T01:04:30.725Z,53.90
2018-12-25T01:05:02.550Z,53.90
2018-12-25T01:05:33.965Z,53.90
2018-12-25T01:06:05.384Z,53.90
2018-12-25T01:06:36.774Z,53.90
2018-12-25T01:07:08.176Z,53.90
2018-12-25T01:07:39.616Z,53.90
2018-12-25T01:08:11.487Z,53.90
2018-12-25T01:11:23.187Z,53.90
2018-12-25T01:21:10.716Z,53.80
2018-12-25T01:21:42.003Z,53.80
2018-12-25T01:22:13.310Z,53.80
2018-12-25T01:22:44.695Z,53.80
2018-12-25T01:23:16.093Z,53.70
2018-12-25T01:23:47.491Z,53.80
2018-12-25T01:24:18.928Z,53.80
2018-12-25T01:24:50.333Z,53.80
2018-12-25T01:25:21.719Z,53.80
2018-12-25T01:25:53.175Z,53.80
2018-12-25T01:26:24.574Z,53.80
2018-12-25T01:26:56.381Z,53.90
2018-12-25T01:27:28.159Z,53.80
2018-12-25T01:27:59.575Z,53.90
2018-12-25T01:28:30.973Z,53.90
2018-12-25T01:29:02.429Z,53.90
2018-12-25T01:29:33.822Z,53.90
2018-12-25T01:30:05.216Z,53.90
2018-12-25T01:30:36.658Z,53.90
2018-12-25T01:31:08.091Z,53.80
2018-12-25T01:31:39.510Z,53.80
2018-12-25T01:32:10.861Z,53.80
2018-12-25T01:32:42.169Z,53.80
2018-12-25T01:33:13.522Z,53.90
2018-12-25T01:33:45.270Z,53.80
2018-12-25T01:34:17.007Z,53.90
2018-12-25T01:34:48.315Z,53.90
2018-12-25T01:35:20.174Z,53.80
2018-12-25T01:35:51.507Z,53.90
2018-12-25T01:36:23.376Z,53.90
2018-12-25T01:36:54.795Z,53.90
2018-12-25T01:37:26.660Z,53.90
2018-12-25T01:37:58.053Z,53.90
2018-12-25T01:38:29.416Z,53.90
2018-12-25T01:39:00.827Z,53.90
2018-12-25T01:39:32.202Z,53.90
2018-12-25T01:40:03.942Z,53.90
2018-12-25T01:40:35.350Z,53.90
2018-12-25T01:41:07.276Z,54.00
2018-12-25T01:41:38.687Z,53.90
2018-12-25T01:42:11.630Z,54.00
2018-12-25T01:42:43.067Z,54.00
2018-12-25T01:43:14.428Z,54.00
2018-12-25T01:43:45.852Z,54.00
2018-12-25T01:44:17.641Z,54.00
2018-12-25T01:44:48.926Z,54.10
2018-12-25T01:45:20.676Z,54.00
2018-12-25T01:45:51.970Z,54.00
2018-12-25T01:46:23.606Z,54.00
2018-12-25T01:46:54.930Z,54.00
2018-12-25T01:47:26.319Z,54.00
2018-12-25T01:47:57.719Z,54.00
2018-12-25T01:48:29.463Z,54.00
2018-12-25T01:49:00.828Z,54.00
2018-12-25T01:49:32.714Z,54.00
2018-12-25T01:50:04.497Z,54.00
2018-12-25T01:50:35.831Z,53.90
2018-12-25T01:51:07.204Z,53.90
2018-12-25T01:51:38.622Z,53.90
2018-12-25T01:52:10.060Z,53.90
2018-12-25T01:52:41.836Z,53.90
2018-12-25T01:53:13.528Z,54.00
2018-12-25T01:53:44.937Z,53.90
2018-12-25T01:54:16.330Z,53.90
2018-12-25T01:54:47.752Z,54.60
2018-12-25T01:55:19.505Z,53.90
2018-12-25T01:55:51.200Z,54.00
2018-12-25T01:56:22.575Z,53.90
2018-12-25T01:56:53.981Z,53.90
2018-12-25T01:57:25.353Z,54.00
2018-12-25T01:57:56.752Z,53.90
2018-12-25T01:58:28.153Z,54.00
2018-12-25T01:58:59.561Z,53.90
2018-12-25T01:59:30.975Z,53.90
2018-12-25T02:00:02.391Z,53.90
2018-12-25T02:00:33.768Z,54.00
2018-12-25T02:01:05.527Z,54.00
2018-12-25T02:01:36.937Z,53.90
2018-12-25T02:02:08.316Z,53.90
2018-12-25T02:02:39.724Z,53.90
2018-12-25T02:03:11.045Z,53.90
2018-12-25T02:03:42.362Z,53.90
2018-12-25T02:04:13.799Z,53.90
2018-12-25T02:04:45.241Z,53.90
2018-12-25T02:05:16.600Z,54.00
2018-12-25T02:05:47.990Z,53.90
2018-12-25T02:06:19.278Z,53.90
2018-12-25T02:06:50.673Z,53.90
2018-12-25T02:07:22.079Z,53.90
2018-12-25T02:07:53.481Z,53.90
2018-12-25T02:08:24.903Z,53.90
2018-12-25T02:08:56.183Z,53.80
2018-12-25T02:09:27.550Z,53.90
2018-12-25T02:09:58.998Z,53.90
2018-12-25T02:11:20.790Z,53.90
2018-12-25T02:11:52.168Z,53.80
2018-12-25T02:12:23.540Z,53.80
2018-12-25T02:12:54.931Z,53.80
2018-12-25T02:13:26.305Z,53.80
2018-12-25T02:13:57.718Z,53.80
2018-12-25T02:14:30.852Z,53.80
2018-12-25T02:15:02.406Z,53.80
2018-12-25T02:15:33.875Z,53.80
2018-12-25T02:16:05.725Z,53.80
2018-12-25T02:16:37.067Z,53.80
2018-12-25T02:17:08.487Z,53.80
2018-12-25T02:17:39.902Z,53.70
2018-12-25T02:18:11.235Z,53.70
2018-12-25T02:18:42.691Z,53.70
2018-12-25T02:19:14.396Z,53.70
2018-12-25T02:19:45.825Z,53.70
2018-12-25T02:20:17.273Z,53.70
2018-12-25T02:20:48.717Z,53.70
2018-12-25T02:21:20.108Z,53.70
2018-12-25T02:21:51.867Z,53.70
2018-12-25T02:22:23.213Z,53.70
2018-12-25T02:22:54.555Z,53.70
2018-12-25T02:23:25.918Z,53.80
2018-12-25T02:23:57.369Z,53.80
2018-12-25T02:24:30.503Z,53.80
2018-12-25T02:25:01.984Z,53.80
2018-12-25T02:25:33.479Z,53.80
2018-12-25T02:26:04.923Z,53.80
2018-12-25T02:26:36.301Z,53.90
2018-12-25T02:27:07.728Z,53.90
2018-12-25T02:27:39.296Z,53.90
2018-12-25T02:28:10.713Z,53.90
2018-12-25T02:28:42.481Z,53.80
2018-12-25T02:29:13.848Z,53.90
2018-12-25T02:29:45.249Z,54.00
2018-12-25T02:30:16.655Z,53.90
2018-12-25T02:30:48.166Z,53.90
2018-12-25T02:31:19.488Z,53.90
2018-12-25T02:31:50.864Z,54.00
2018-12-25T02:32:22.297Z,54.00
2018-12-25T02:32:53.639Z,54.00
2018-12-25T02:33:25.026Z,54.00
2018-12-25T02:33:56.329Z,54.00
2018-12-25T02:34:27.710Z,54.00
2018-12-25T02:34:59.486Z,54.00
2018-12-25T02:35:33.630Z,54.00
2018-12-25T02:36:04.938Z,54.00
2018-12-25T02:36:36.254Z,54.00
2018-12-25T02:37:07.650Z,54.00
2018-12-25T02:37:39.122Z,53.90
2018-12-25T02:38:10.454Z,54.00
2018-12-25T02:38:41.924Z,53.90
2018-12-25T02:39:13.385Z,54.00
2018-12-25T02:39:44.769Z,54.00
2018-12-25T02:40:16.569Z,53.90
2018-12-25T02:40:48.008Z,54.00
2018-12-25T02:41:19.787Z,54.00
2018-12-25T02:41:51.172Z,54.00
2018-12-25T02:42:22.536Z,53.90
2018-12-25T02:42:53.964Z,53.90
2018-12-25T02:43:25.389Z,53.80
2018-12-25T02:43:56.769Z,53.80
2018-12-25T02:44:28.154Z,53.90
2018-12-25T02:44:59.540Z,53.90
2018-12-25T02:45:31.251Z,53.90
2018-12-25T02:46:02.633Z,53.90
2018-12-25T02:46:33.998Z,53.90
2018-12-25T02:47:05.407Z,53.90
2018-12-25T02:47:36.744Z,53.90
2018-12-25T02:48:08.152Z,53.80
2018-12-25T02:48:39.568Z,53.90
2018-12-25T02:49:12.865Z,53.80
2018-12-25T02:49:50.173Z,53.80
2018-12-25T02:50:17.274Z,53.80
2018-12-25T02:50:48.749Z,53.90
2018-12-25T02:51:23.185Z,53.80
2018-12-25T02:51:54.550Z,53.90
2018-12-25T02:52:25.871Z,53.80
2018-12-25T02:52:57.291Z,53.80
2018-12-25T02:53:28.767Z,53.80
2018-12-25T02:54:00.110Z,53.80
2018-12-25T02:54:31.535Z,53.80
2018-12-25T02:55:02.891Z,53.80
2018-12-25T02:55:34.274Z,53.80
2018-12-25T02:56:05.632Z,53.80
2018-12-25T02:56:37.106Z,53.80
2018-12-25T02:57:08.826Z,53.80
2018-12-25T02:57:40.307Z,53.80
2018-12-25T02:58:12.229Z,53.70
2018-12-25T02:58:43.900Z,53.70
2018-12-25T02:59:15.307Z,53.70
2018-12-25T02:59:47.095Z,53.70
2018-12-25T03:00:22.893Z,53.70
2018-12-25T03:00:54.721Z,53.70
2018-12-25T03:01:26.163Z,53.60
2018-12-25T03:01:57.543Z,53.60
2018-12-25T03:02:28.941Z,53.60
2018-12-25T03:03:00.322Z,53.60
2018-12-25T03:03:32.083Z,53.60
2018-12-25T03:04:03.453Z,53.60
2018-12-25T03:04:34.846Z,53.60
2018-12-25T03:05:06.244Z,53.70
2018-12-25T03:05:37.633Z,53.70
2018-12-25T03:06:09.067Z,53.70
2018-12-25T03:06:40.523Z,53.60
2018-12-25T03:07:11.794Z,53.60
2018-12-25T03:07:43.167Z,53.60
2018-12-25T03:08:14.483Z,54.30
2018-12-25T03:08:45.879Z,53.70
2018-12-25T03:09:17.202Z,53.60
2018-12-25T03:09:48.498Z,53.70
2018-12-25T03:10:19.977Z,53.70
2018-12-25T03:10:51.357Z,53.60
2018-12-25T03:11:22.803Z,53.70
2018-12-25T03:11:54.185Z,53.70
2018-12-25T03:12:25.960Z,53.70
2018-12-25T03:12:57.397Z,53.70
2018-12-25T03:13:28.801Z,53.70
2018-12-25T03:14:00.216Z,53.80
2018-12-25T03:14:31.571Z,53.80
2018-12-25T03:15:02.945Z,53.80
2018-12-25T03:15:34.332Z,53.80
2018-12-25T03:16:05.731Z,53.80
2018-12-25T03:16:37.220Z,53.80
2018-12-25T03:17:08.755Z,53.80
2018-12-25T03:17:40.100Z,53.80
2018-12-25T03:18:11.534Z,53.90
2018-12-25T03:18:42.952Z,53.90
2018-12-25T03:19:14.308Z,53.90
2018-12-25T03:19:45.699Z,53.90
2018-12-25T03:20:16.980Z,53.90
2018-12-25T03:20:48.438Z,53.90
2018-12-25T03:21:20.208Z,54.00
2018-12-25T03:21:51.806Z,54.00
2018-12-25T03:22:23.228Z,54.00
2018-12-25T03:22:54.649Z,54.00
2018-12-25T03:23:26.011Z,54.00
2018-12-25T03:23:57.431Z,53.90
2018-12-25T03:24:28.997Z,53.90
2018-12-25T03:25:00.718Z,53.90
2018-12-25T03:25:32.106Z,54.00
2018-12-25T03:26:03.458Z,53.90
2018-12-25T03:26:34.935Z,53.90
2018-12-25T03:27:06.340Z,54.50
2018-12-25T03:27:37.702Z,53.90
2018-12-25T03:28:09.109Z,53.90
2018-12-25T03:28:40.487Z,53.90
2018-12-25T03:29:11.890Z,53.90
2018-12-25T03:29:43.303Z,53.90
2018-12-25T03:30:14.676Z,53.90
2018-12-25T03:30:48.193Z,53.90
2018-12-25T03:31:19.765Z,53.90
2018-12-25T03:31:51.146Z,53.90
2018-12-25T03:32:22.439Z,53.90
2018-12-25T03:32:53.912Z,53.80
2018-12-25T03:33:25.259Z,53.90
2018-12-25T03:33:56.626Z,53.80
2018-12-25T03:34:27.997Z,53.80
2018-12-25T03:34:59.498Z,53.80
2018-12-25T03:35:30.822Z,53.80
2018-12-25T03:36:02.243Z,53.80
2018-12-25T03:36:34.016Z,53.80
2018-12-25T03:37:05.469Z,53.80
2018-12-25T03:37:37.269Z,53.80
2018-12-25T03:38:08.628Z,53.80
2018-12-25T03:38:40.052Z,53.80
2018-12-25T03:39:11.453Z,53.80
2018-12-25T03:39:42.878Z,53.80
2018-12-25T03:40:14.650Z,53.80
2018-12-25T03:40:46.097Z,53.80
2018-12-25T03:41:17.406Z,53.80
2018-12-25T03:41:48.862Z,53.80
2018-12-25T03:42:20.375Z,53.80
2018-12-25T03:42:51.705Z,53.80
2018-12-25T03:43:23.127Z,53.80
2018-12-25T03:43:54.534Z,53.80
2018-12-25T03:44:25.892Z,53.80
2018-12-25T03:44:57.315Z,53.80
2018-12-25T03:45:31.251Z,53.70
2018-12-25T03:46:02.635Z,53.70
2018-12-25T03:46:34.027Z,53.60
2018-12-25T03:47:05.458Z,53.60
2018-12-25T03:47:36.915Z,53.60
2018-12-25T03:48:08.341Z,53.60
2018-12-25T03:48:39.743Z,53.60
2018-12-25T03:49:11.102Z,53.50
2018-12-25T03:49:42.488Z,53.60
2018-12-25T03:50:13.880Z,53.60
2018-12-25T03:50:45.356Z,53.50
2018-12-25T03:51:16.651Z,53.50
2018-12-25T03:51:48.150Z,53.50
2018-12-25T03:52:19.692Z,53.60
2018-12-25T03:52:51.025Z,53.60
2018-12-25T03:53:22.410Z,53.60
2018-12-25T03:53:53.809Z,53.50
2018-12-25T03:54:25.156Z,53.60
2018-12-25T03:54:56.558Z,53.60
2018-12-25T03:55:27.956Z,53.60
2018-12-25T03:55:59.342Z,53.60
2018-12-25T03:56:30.809Z,53.60
2018-12-25T03:57:02.230Z,53.60
2018-12-25T03:57:33.672Z,53.70
2018-12-25T03:58:05.049Z,53.60
2018-12-25T03:58:36.483Z,53.70
2018-12-25T03:59:07.846Z,53.60
2018-12-25T03:59:39.234Z,53.60
2018-12-25T04:00:10.626Z,53.60
2018-12-25T04:00:42.000Z,53.60
2018-12-25T04:01:13.400Z,53.60
2018-12-25T04:01:45.183Z,53.60
2018-12-25T04:02:16.582Z,53.70
2018-12-25T04:02:48.102Z,53.70
2018-12-25T04:03:19.535Z,53.70
2018-12-25T04:03:50.999Z,53.70
2018-12-25T04:04:22.397Z,53.70
2018-12-25T04:04:53.792Z,53.80
2018-12-25T04:05:25.274Z,53.80
2018-12-25T04:05:56.719Z,53.80
2018-12-25T04:06:28.146Z,53.80
2018-12-25T04:06:59.460Z,53.80
2018-12-25T04:07:30.852Z,53.80
2018-12-25T04:08:02.576Z,53.80
2018-12-25T04:08:33.966Z,53.80
2018-12-25T04:09:05.378Z,53.70
2018-12-25T04:09:37.061Z,53.70
2018-12-25T04:10:08.423Z,53.70
2018-12-25T04:10:39.756Z,53.70
2018-12-25T04:11:11.517Z,53.70
2018-12-25T04:11:42.890Z,53.70
2018-12-25T04:12:14.265Z,53.70
2018-12-25T04:12:45.707Z,53.70
2018-12-25T04:13:17.101Z,53.70
2018-12-25T04:13:48.508Z,53.70
2018-12-25T04:14:19.855Z,53.70
2018-12-25T04:14:51.235Z,53.70
2018-12-25T04:15:22.627Z,53.70
2018-12-25T04:15:53.983Z,53.70
2018-12-25T04:16:25.312Z,53.70
2018-12-25T04:16:57.029Z,53.70
2018-12-25T04:17:28.400Z,53.70
2018-12-25T04:17:59.785Z,53.80
2018-12-25T04:18:31.159Z,53.80
2018-12-25T04:19:02.929Z,53.80
2018-12-25T04:19:34.294Z,53.80
2018-12-25T04:20:05.635Z,53.80
2018-12-25T04:20:37.009Z,53.80
2018-12-25T04:21:08.418Z,53.80
2018-12-25T04:21:40.124Z,53.80
2018-12-25T04:22:11.830Z,53.80
2018-12-25T04:22:43.530Z,53.80
2018-12-25T04:23:15.307Z,53.80
2018-12-25T04:23:46.626Z,53.80
2018-12-25T04:24:17.995Z,53.80
2018-12-25T04:24:49.365Z,53.90
2018-12-25T04:25:20.713Z,53.90
2018-12-25T04:25:52.065Z,53.90
2018-12-25T04:26:23.399Z,53.80
2018-12-25T04:26:54.766Z,53.80
2018-12-25T04:27:26.134Z,53.80
2018-12-25T04:27:57.577Z,53.80
2018-12-25T04:28:28.867Z,53.90
2018-12-25T04:29:00.262Z,53.90
2018-12-25T04:29:31.611Z,53.90
2018-12-25T04:30:02.985Z,53.90
2018-12-25T04:30:34.626Z,53.90
2018-12-25T04:31:05.968Z,53.90
2018-12-25T04:31:37.348Z,53.90
2018-12-25T04:32:08.695Z,53.90
2018-12-25T04:32:39.994Z,53.80
2018-12-25T04:33:11.752Z,53.80
2018-12-25T04:33:43.110Z,53.80
2018-12-25T04:34:14.486Z,53.80
2018-12-25T04:34:45.855Z,53.70
2018-12-25T04:35:17.197Z,53.70
2018-12-25T04:35:48.558Z,53.70
2018-12-25T04:36:19.996Z,53.70
2018-12-25T04:36:51.282Z,53.70
2018-12-25T04:37:22.648Z,53.60
2018-12-25T04:37:54.364Z,53.60
2018-12-25T04:38:25.800Z,53.60
2018-12-25T04:38:57.126Z,53.60
2018-12-25T04:39:28.515Z,53.60
2018-12-25T04:39:59.854Z,53.60
2018-12-25T04:40:31.180Z,53.60
2018-12-25T04:41:02.532Z,53.60
2018-12-25T04:41:33.875Z,53.70
2018-12-25T04:42:05.262Z,53.60
2018-12-25T04:42:36.865Z,53.60
2018-12-25T04:43:08.247Z,53.60
2018-12-25T04:43:39.702Z,53.60
2018-12-25T04:44:11.100Z,53.60
2018-12-25T04:44:42.782Z,53.70
2018-12-25T04:45:14.483Z,53.60
2018-12-25T04:45:45.809Z,53.60
2018-12-25T04:46:17.514Z,53.60
2018-12-25T04:46:48.907Z,53.60
2018-12-25T04:47:20.284Z,53.60
2018-12-25T04:47:51.698Z,53.60
2018-12-25T04:48:23.115Z,53.60
2018-12-25T04:48:54.522Z,53.60
2018-12-25T04:49:25.926Z,53.60
2018-12-25T04:49:57.267Z,53.60
2018-12-25T04:50:29.541Z,53.60
2018-12-25T04:51:01.161Z,53.60
2018-12-25T04:51:32.498Z,53.60
2018-12-25T04:52:03.835Z,53.60
2018-12-25T04:52:35.147Z,53.70
2018-12-25T04:53:06.484Z,53.70
2018-12-25T04:53:37.916Z,53.70
2018-12-25T04:54:09.340Z,53.70
2018-12-25T04:54:40.695Z,53.70
2018-12-25T04:55:11.985Z,53.70
2018-12-25T04:55:43.444Z,53.70
2018-12-25T04:56:15.297Z,53.70
2018-12-25T04:56:46.636Z,53.70
2018-12-25T04:57:17.958Z,53.60
2018-12-25T04:57:49.320Z,53.70
2018-12-25T04:58:21.020Z,53.60
2018-12-25T04:58:52.409Z,53.70
2018-12-25T04:59:23.796Z,53.60
2018-12-25T04:59:55.475Z,53.60
2018-12-25T05:00:26.890Z,53.70
2018-12-25T05:00:58.166Z,53.60
2018-12-25T05:01:29.639Z,53.70
2018-12-25T05:02:01.011Z,53.70
2018-12-25T05:02:32.403Z,53.70
2018-12-25T05:03:03.751Z,53.60
2018-12-25T05:03:35.099Z,53.70
2018-12-25T05:04:06.933Z,53.70
2018-12-25T05:04:38.310Z,53.70
2018-12-25T05:05:09.611Z,53.70
2018-12-25T05:05:41.018Z,53.70
2018-12-25T05:06:12.481Z,53.70
2018-12-25T05:06:44.177Z,53.70
2018-12-25T05:07:15.592Z,53.70
2018-12-25T05:07:46.924Z,53.80
2018-12-25T05:08:18.294Z,53.70
2018-12-25T05:08:49.667Z,53.80
2018-12-25T05:09:21.083Z,53.80
2018-12-25T05:09:52.444Z,53.80
2018-12-25T05:10:23.822Z,53.80
2018-12-25T05:10:55.176Z,53.80
2018-12-25T05:11:26.537Z,53.80
2018-12-25T05:11:58.071Z,53.90
2018-12-25T05:12:29.531Z,53.90
2018-12-25T05:13:01.264Z,53.90
2018-12-25T05:13:32.580Z,53.90
2018-12-25T05:14:03.912Z,53.90
2018-12-25T05:14:35.397Z,53.90
2018-12-25T05:15:06.790Z,53.90
2018-12-25T05:15:38.079Z,54.00
2018-12-25T05:16:09.411Z,53.90
2018-12-25T05:16:40.791Z,53.90
2018-12-25T05:17:12.180Z,53.80
2018-12-25T05:17:43.531Z,53.80
2018-12-25T05:18:15.257Z,53.80
2018-12-25T05:18:46.654Z,53.70
2018-12-25T05:19:17.983Z,53.80
2018-12-25T05:19:49.437Z,53.70
2018-12-25T05:20:20.786Z,53.70
2018-12-25T05:20:52.122Z,53.70
2018-12-25T05:21:23.444Z,53.70
2018-12-25T05:21:55.286Z,53.70
2018-12-25T05:22:28.935Z,53.70
2018-12-25T05:23:00.712Z,53.60
2018-12-25T05:23:32.555Z,53.70
2018-12-25T05:24:03.910Z,53.70
2018-12-25T05:24:35.407Z,53.70
2018-12-25T05:25:06.719Z,53.60
2018-12-25T05:25:38.220Z,53.60
2018-12-25T05:26:09.563Z,53.60
2018-12-25T05:26:42.212Z,53.70
2018-12-25T05:27:13.572Z,53.70
2018-12-25T05:27:44.930Z,53.60
2018-12-25T05:28:16.669Z,53.60
2018-12-25T05:28:48.113Z,53.60
2018-12-25T05:29:19.493Z,53.60
2018-12-25T05:29:50.935Z,53.60
2018-12-25T05:30:22.317Z,53.60
2018-12-25T05:30:53.739Z,53.60
2018-12-25T05:31:25.175Z,53.60
2018-12-25T05:31:56.891Z,53.60
2018-12-25T05:32:28.321Z,53.60
2018-12-25T05:32:59.679Z,53.60
2018-12-25T05:33:31.071Z,53.60
2018-12-25T05:34:02.902Z,53.60
2018-12-25T05:34:34.303Z,53.60
2018-12-25T05:35:05.803Z,53.60
2018-12-25T05:35:37.267Z,53.60
2018-12-25T05:36:08.664Z,53.60
2018-12-25T05:36:40.025Z,53.70
2018-12-25T05:37:11.468Z,53.60
2018-12-25T05:37:42.893Z,53.60
2018-12-25T05:38:14.305Z,53.60
2018-12-25T05:38:45.902Z,53.70
2018-12-25T05:39:17.236Z,53.60
2018-12-25T05:39:48.655Z,53.60
2018-12-25T05:40:20.117Z,53.70
2018-12-25T05:40:51.544Z,53.60
2018-12-25T05:41:24.006Z,53.70
2018-12-25T05:41:55.380Z,53.60
2018-12-25T05:42:27.049Z,53.70
2018-12-25T05:42:58.367Z,53.70
2018-12-25T05:43:29.694Z,53.70
2018-12-25T05:44:01.056Z,53.60
2018-12-25T05:44:32.411Z,53.60
2018-12-25T05:45:03.823Z,53.60
2018-12-25T05:45:35.333Z,53.60
2018-12-25T05:46:06.830Z,53.60
2018-12-25T05:46:38.221Z,53.60
2018-12-25T05:47:09.629Z,53.60
2018-12-25T05:47:41.070Z,53.60
2018-12-25T05:48:12.482Z,53.60
2018-12-25T05:48:44.783Z,53.60
2018-12-25T05:49:16.181Z,53.60
2018-12-25T05:49:47.589Z,53.60
2018-12-25T05:50:19.235Z,53.60
2018-12-25T05:50:51.553Z,53.70
2018-12-25T05:51:23.351Z,53.70
2018-12-25T05:51:54.777Z,53.70
2018-12-25T05:52:26.183Z,53.70
2018-12-25T05:52:57.534Z,53.70
2018-12-25T05:53:28.987Z,53.60
2018-12-25T05:54:00.325Z,53.70
2018-12-25T05:54:31.718Z,53.70
2018-12-25T05:55:03.106Z,53.70
2018-12-25T05:55:34.566Z,53.70
2018-12-25T05:56:06.029Z,53.70
2018-12-25T05:56:37.414Z,53.70
2018-12-25T05:57:09.233Z,53.80
2018-12-25T05:57:41.683Z,53.80
2018-12-25T05:58:13.054Z,53.80
2018-12-25T05:58:44.481Z,53.80
2018-12-25T05:59:16.415Z,53.80
2018-12-25T05:59:47.888Z,54.40
2018-12-25T06:00:20.468Z,53.80
2018-12-25T06:00:51.965Z,53.90
2018-12-25T06:01:23.357Z,53.80
2018-12-25T06:01:57.035Z,53.80
2018-12-25T06:02:28.508Z,53.90
2018-12-25T06:03:00.096Z,53.90
2018-12-25T06:03:31.963Z,53.90
2018-12-25T06:04:03.455Z,53.90
2018-12-25T06:04:34.870Z,53.90
2018-12-25T06:05:06.267Z,53.90
2018-12-25T06:05:38.445Z,53.90
2018-12-25T06:06:09.923Z,53.90
2018-12-25T06:06:42.320Z,53.80
2018-12-25T06:07:14.039Z,53.90
2018-12-25T06:07:45.432Z,53.80
2018-12-25T06:08:16.806Z,53.80
2018-12-25T06:08:48.235Z,53.80
2018-12-25T06:09:19.665Z,53.70
2018-12-25T06:09:51.147Z,53.70
2018-12-25T06:10:22.967Z,53.70
2018-12-25T06:10:54.478Z,53.70
2018-12-25T06:11:25.862Z,53.70
2018-12-25T06:11:57.253Z,53.70
2018-12-25T06:12:28.614Z,53.70
2018-12-25T06:13:00.061Z,53.70
2018-12-25T06:13:31.484Z,53.70
2018-12-25T06:14:02.937Z,53.60
2018-12-25T06:14:34.343Z,53.70
2018-12-25T06:15:05.762Z,53.60
2018-12-25T06:15:37.071Z,53.60
2018-12-25T06:16:08.479Z,53.60
2018-12-25T06:16:39.883Z,53.60
2018-12-25T06:17:11.609Z,53.60
2018-12-25T06:17:42.993Z,53.60
2018-12-25T06:18:14.380Z,53.60
2018-12-25T06:18:46.047Z,53.60
2018-12-25T06:19:17.546Z,53.60
2018-12-25T06:19:48.929Z,53.60
2018-12-25T06:20:20.780Z,53.60
2018-12-25T06:20:55.194Z,53.60
2018-12-25T06:21:25.277Z,53.60
2018-12-25T06:21:56.982Z,53.60
2018-12-25T06:22:28.907Z,53.60
2018-12-25T06:23:00.288Z,53.60
2018-12-25T06:23:31.701Z,53.60
2018-12-25T06:24:03.083Z,53.60
2018-12-25T06:24:34.519Z,53.60
2018-12-25T06:25:05.830Z,53.60
2018-12-25T06:25:37.253Z,53.60
2018-12-25T06:26:09.573Z,53.60
2018-12-25T06:26:40.986Z,53.50
2018-12-25T06:27:12.347Z,53.50
2018-12-25T06:27:44.312Z,53.50
2018-12-25T06:28:15.677Z,53.50
2018-12-25T06:28:47.033Z,53.50
2018-12-25T06:29:18.421Z,53.40
2018-12-25T06:29:49.845Z,53.40
2018-12-25T06:30:21.251Z,53.50
2018-12-25T06:30:52.659Z,53.50
2018-12-25T06:31:24.154Z,53.50
2018-12-25T06:31:55.616Z,53.40
2018-12-25T06:32:26.992Z,53.50
2018-12-25T06:32:58.395Z,53.50
2018-12-25T06:33:29.745Z,53.50
2018-12-25T06:34:01.180Z,53.50
2018-12-25T06:34:32.561Z,53.50
2018-12-25T06:35:04.079Z,53.50
2018-12-25T06:35:35.463Z,53.50
2018-12-25T06:36:06.858Z,53.60
2018-12-25T06:36:38.436Z,53.60
2018-12-25T06:37:10.401Z,53.60
2018-12-25T06:37:41.900Z,53.60
2018-12-25T06:38:13.280Z,53.60
2018-12-25T06:38:44.645Z,53.70
2018-12-25T06:39:16.073Z,53.70
2018-12-25T06:39:47.498Z,53.70
2018-12-25T06:40:18.945Z,53.70
2018-12-25T06:40:50.493Z,53.80
2018-12-25T06:41:22.507Z,53.70
2018-12-25T06:41:54.162Z,53.70
2018-12-25T06:42:25.575Z,53.70
2018-12-25T06:42:57.175Z,53.70
2018-12-25T06:43:28.521Z,53.70
2018-12-25T06:44:00.036Z,53.70
2018-12-25T06:44:31.909Z,53.70
2018-12-25T06:45:03.782Z,53.70
2018-12-25T06:45:35.253Z,53.70
2018-12-25T06:46:06.710Z,53.80
2018-12-25T06:47:28.639Z,53.80
2018-12-25T06:47:59.959Z,53.80
2018-12-25T06:48:31.399Z,53.80
2018-12-25T06:49:02.923Z,53.80
2018-12-25T06:49:34.498Z,53.80
2018-12-25T06:50:06.041Z,53.80
2018-12-25T06:50:37.379Z,53.80
2018-12-25T06:51:08.775Z,53.80
2018-12-25T06:51:40.298Z,53.80
2018-12-25T06:52:11.701Z,53.70
2018-12-25T06:52:43.095Z,53.80
2018-12-25T06:53:14.519Z,53.80
2018-12-25T06:53:45.955Z,53.80
2018-12-25T06:54:17.349Z,53.70
2018-12-25T06:54:48.926Z,53.70
2018-12-25T06:55:20.586Z,53.70
2018-12-25T06:55:51.928Z,53.70
2018-12-25T06:56:23.357Z,53.70
2018-12-25T06:56:54.731Z,53.80
2018-12-25T06:57:26.134Z,53.80
2018-12-25T06:57:57.474Z,53.80
2018-12-25T06:58:28.806Z,53.70
2018-12-25T06:59:00.240Z,53.70
2018-12-25T06:59:31.653Z,53.70
2018-12-25T07:00:03.609Z,53.70
2018-12-25T07:00:34.978Z,53.70
2018-12-25T07:01:06.370Z,53.70
2018-12-25T07:01:37.787Z,53.70
2018-12-25T07:02:59.648Z,53.80